createdAt,value
2018-06-04T00:00:03.983Z,21.37
2018-06-04T00:02:32.620Z,20.47
2018-06-04T00:05:01.226Z,27.27
2018-06-04T00:07:29.760Z,23.97
2018-06-04T00:09:58.457Z,26.07
2018-06-04T00:12:27.369Z,20.33
2018-06-04T00:14:56.074Z,18.57
2018-06-04T00:17:24.667Z,21.10
2018-06-04T00:19:53.190Z,26.70
2018-06-04T00:22:21.883Z,21.87
2018-06-04T00:24:50.423Z,24.37
2018-06-04T00:27:18.647Z,18.53
2018-06-04T00:29:47.208Z,24.53
2018-06-04T00:32:15.797Z,20.77
2018-06-04T00:34:44.594Z,25.30
2018-06-04T00:37:13.240Z,22.03
2018-06-04T00:39:41.894Z,23.80
2018-06-04T00:42:10.549Z,25.70
2018-06-04T00:44:39.066Z,22.97
2018-06-04T00:47:07.715Z,22.70
2018-06-04T00:49:36.687Z,23.73
2018-06-04T00:52:05.746Z,23.87
2018-06-04T00:54:34.488Z,21.80
2018-06-04T00:57:03.051Z,18.90
2018-06-04T00:59:31.791Z,22.60
2018-06-04T01:02:00.296Z,22.67
2018-06-04T01:04:28.853Z,20.40
2018-06-04T01:06:57.378Z,19.97
2018-06-04T01:09:25.917Z,20.67
2018-06-04T01:11:54.395Z,20.10
2018-06-04T01:14:22.973Z,19.40
2018-06-04T01:16:51.433Z,24.23
2018-06-04T01:19:19.955Z,20.93
2018-06-04T01:21:49.473Z,30.03
2018-06-04T01:24:18.032Z,31.43
2018-06-04T01:26:46.540Z,26.40
2018-06-04T01:29:15.027Z,30.73
2018-06-04T01:31:43.663Z,30.03
2018-06-04T01:34:12.305Z,31.23
2018-06-04T01:36:40.842Z,29.47
2018-06-04T01:39:09.488Z,26.67
2018-06-04T01:41:38.404Z,26.27
2018-06-04T01:44:06.640Z,22.33
2018-06-04T01:46:35.158Z,23.43
2018-06-04T01:49:04.483Z,20.17
2018-06-04T01:51:32.981Z,18.73
2018-06-04T01:54:01.591Z,19.60
2018-06-04T01:56:30.268Z,18.93
2018-06-04T01:58:59.440Z,19.53
2018-06-04T02:01:28.017Z,15.57
2018-06-04T02:03:56.672Z,16.83
2018-06-04T02:06:25.202Z,18.30
2018-06-04T02:08:53.677Z,18.83
2018-06-04T02:11:22.430Z,21.83
2018-06-04T02:13:50.627Z,21.97
2018-06-04T02:16:19.227Z,18.83
2018-06-04T02:18:47.757Z,23.40
2018-06-04T02:21:16.030Z,20.60
2018-06-04T02:23:44.562Z,21.17
2018-06-04T02:26:13.482Z,20.67
2018-06-04T02:28:42.082Z,20.97
2018-06-04T02:31:10.581Z,19.63
2018-06-04T02:33:39.072Z,17.80
2018-06-04T02:36:07.585Z,14.93
2018-06-04T02:38:36.044Z,17.40
2018-06-04T02:41:04.718Z,14.83
2018-06-04T02:43:33.398Z,17.27
2018-06-04T02:46:01.893Z,16.37
2018-06-04T02:48:30.470Z,18.77
2018-06-04T02:50:59.038Z,17.77
2018-06-04T02:53:27.851Z,18.20
2018-06-04T02:55:56.375Z,18.60
2018-06-04T02:58:25.805Z,15.53
2018-06-04T03:00:54.308Z,21.27
2018-06-04T03:03:22.880Z,18.53
2018-06-04T03:05:51.432Z,18.30
2018-06-04T03:08:19.965Z,16.37
2018-06-04T03:10:48.677Z,17.47
2018-06-04T03:13:17.179Z,20.97
2018-06-04T03:15:45.703Z,20.63
2018-06-04T03:18:14.342Z,19.47
2018-06-04T03:20:42.828Z,21.37
2018-06-04T03:23:11.406Z,17.60
2018-06-04T03:25:39.886Z,17.80
2018-06-04T03:28:08.407Z,17.77
2018-06-04T03:30:36.947Z,16.70
2018-06-04T03:33:05.616Z,16.93
2018-06-04T03:35:34.266Z,16.93
2018-06-04T03:38:02.765Z,17.73
2018-06-04T03:40:31.520Z,13.80
2018-06-04T03:42:59.986Z,16.13
2018-06-04T03:45:28.485Z,16.50
2018-06-04T03:47:57.761Z,16.77
2018-06-04T03:50:26.646Z,17.33
2018-06-04T03:52:55.133Z,14.70
2018-06-04T03:55:23.716Z,13.57
2018-06-04T03:57:52.358Z,15.27
2018-06-04T04:00:20.859Z,13.60
2018-06-04T04:02:49.448Z,12.97
2018-06-04T04:05:18.079Z,16.83
2018-06-04T04:07:46.696Z,15.83
2018-06-04T04:10:15.204Z,16.93
2018-06-04T04:12:44.197Z,15.70
2018-06-04T04:15:12.646Z,15.90
2018-06-04T04:17:41.280Z,15.47
2018-06-04T04:20:09.804Z,16.13
2018-06-04T04:22:38.364Z,12.73
2018-06-04T04:25:07.246Z,14.20
2018-06-04T04:27:35.763Z,13.63
2018-06-04T04:30:04.400Z,11.47
2018-06-04T04:32:32.931Z,12.63
2018-06-04T04:35:01.458Z,13.33
2018-06-04T04:37:30.146Z,10.30
2018-06-04T04:39:58.848Z,11.97
2018-06-04T04:42:27.518Z,11.97
2018-06-04T04:44:56.819Z,12.47
2018-06-04T04:47:25.605Z,11.90
2018-06-04T04:49:54.167Z,10.00
2018-06-04T04:52:23.080Z,12.87
2018-06-04T04:54:52.180Z,14.20
2018-06-04T04:57:20.756Z,13.63
2018-06-04T04:59:49.270Z,11.77
2018-06-04T05:02:17.902Z,16.07
2018-06-04T05:04:47.457Z,15.87
2018-06-04T05:07:16.725Z,18.40
2018-06-04T05:09:44.912Z,16.67
2018-06-04T05:12:13.439Z,16.73
2018-06-04T05:14:42.248Z,18.97
2018-06-04T05:17:10.786Z,15.17
2018-06-04T05:19:39.367Z,17.70
2018-06-04T05:22:07.857Z,14.53
2018-06-04T05:24:36.435Z,15.17
2018-06-04T05:27:06.280Z,19.73
2018-06-04T05:29:35.235Z,20.23
2018-06-04T05:32:04.246Z,18.53
2018-06-04T05:34:32.870Z,19.83
2018-06-04T05:37:01.062Z,18.73
2018-06-04T05:39:29.690Z,21.57
2018-06-04T05:41:58.953Z,17.57
2018-06-04T05:44:28.993Z,18.43
2018-06-04T05:46:57.576Z,19.70
2018-06-04T05:49:26.461Z,18.40
2018-06-04T05:51:55.216Z,16.70
2018-06-04T05:54:23.846Z,19.53
2018-06-04T05:56:52.427Z,17.90
2018-06-04T05:59:21.000Z,17.03
2018-06-04T06:01:49.535Z,18.50
2018-06-04T06:04:18.045Z,16.07
2018-06-04T06:06:47.788Z,18.07
2018-06-04T06:09:16.360Z,17.40
2018-06-04T06:11:44.939Z,19.90
2018-06-04T06:14:13.543Z,16.73
2018-06-04T06:16:42.184Z,15.53
2018-06-04T06:19:10.904Z,15.53
2018-06-04T06:21:41.022Z,15.10
2018-06-04T06:24:09.953Z,15.63
2018-06-04T06:26:38.434Z,14.23
2018-06-04T06:29:07.152Z,12.30
2018-06-04T06:31:35.809Z,12.50
2018-06-04T06:34:04.895Z,13.50
2018-06-04T06:36:33.390Z,12.37
2018-06-04T06:39:08.499Z,12.27
2018-06-04T06:41:37.618Z,11.47
2018-06-04T06:44:06.155Z,12.97
2018-06-04T06:46:34.714Z,13.70
2018-06-04T06:49:03.212Z,12.37
2018-06-04T06:51:31.872Z,11.83
2018-06-04T06:54:00.338Z,15.70
2018-06-04T06:56:28.904Z,16.90
2018-06-04T06:58:57.593Z,13.87
2018-06-04T07:01:26.173Z,15.47
2018-06-04T07:03:54.736Z,14.77
2018-06-04T07:06:23.423Z,14.60
2018-06-04T07:08:51.983Z,14.37
2018-06-04T07:11:20.744Z,13.60
2018-06-04T07:13:49.374Z,16.10
2018-06-04T07:16:18.080Z,18.80
2018-06-04T07:18:47.303Z,16.87
2018-06-04T07:21:15.823Z,17.97
2018-06-04T07:23:44.425Z,17.67
2018-06-04T07:26:13.134Z,17.63
2018-06-04T07:28:41.720Z,14.73
2018-06-04T07:31:10.443Z,18.90
2018-06-04T07:33:39.196Z,17.93
2018-06-04T07:36:10.989Z,18.13
2018-06-04T07:38:40.065Z,17.83
2018-06-04T07:41:08.604Z,17.67
2018-06-04T07:43:37.511Z,17.23
2018-06-04T07:46:06.072Z,16.47
2018-06-04T07:48:34.699Z,16.73
2018-06-04T07:51:03.970Z,16.97
2018-06-04T07:53:32.572Z,17.37
2018-06-04T07:56:01.330Z,13.93
2018-06-04T07:58:30.025Z,14.53
2018-06-04T08:00:58.587Z,13.62
2018-06-04T08:03:27.103Z,13.80
2018-06-04T08:05:55.616Z,13.60
2018-06-04T08:08:24.345Z,12.03
2018-06-04T08:10:53.146Z,11.93
2018-06-04T08:13:21.734Z,14.10
2018-06-04T08:15:50.239Z,13.47
2018-06-04T08:18:18.767Z,13.90
2018-06-04T08:20:48.485Z,13.83
2018-06-04T08:23:17.049Z,14.43
2018-06-04T08:25:45.592Z,14.37
2018-06-04T08:28:14.163Z,13.77
2018-06-04T08:30:42.960Z,13.03
2018-06-04T08:33:11.456Z,15.33
2018-06-04T08:35:40.049Z,14.30
2018-06-04T08:38:08.662Z,14.13
2018-06-04T08:40:37.221Z,14.30
2018-06-04T08:43:06.945Z,13.10
2018-06-04T08:45:35.487Z,15.23
2018-06-04T08:48:04.118Z,13.93
2018-06-04T08:50:32.619Z,13.57
2018-06-04T08:53:01.410Z,14.33
2018-06-04T08:55:30.561Z,11.67
2018-06-04T08:57:59.967Z,16.30
2018-06-04T09:00:28.713Z,16.53
2018-06-04T09:02:57.258Z,16.20
2018-06-04T09:05:26.260Z,14.10
2018-06-04T09:07:54.757Z,14.23
2018-06-04T09:10:23.301Z,12.77
2018-06-04T09:12:51.813Z,14.27
2018-06-04T09:15:20.408Z,11.77
2018-06-04T09:17:48.921Z,13.43
2018-06-04T09:20:17.544Z,12.20
2018-06-04T09:22:46.201Z,13.53
2018-06-04T09:25:14.857Z,14.43
2018-06-04T09:27:43.457Z,16.10
2018-06-04T09:30:12.165Z,16.03
2018-06-04T09:32:40.807Z,14.23
2018-06-04T09:35:09.313Z,15.73
2018-06-04T09:37:37.822Z,16.40
2018-06-04T09:40:06.485Z,17.73
2018-06-04T09:42:35.465Z,17.07
2018-06-04T09:45:04.223Z,17.40
2018-06-04T09:47:32.799Z,17.43
2018-06-04T09:50:01.349Z,18.03
2018-06-04T09:52:29.946Z,17.70
2018-06-04T09:54:58.507Z,20.30
2018-06-04T09:57:27.028Z,22.13
2018-06-04T09:59:55.595Z,20.53
2018-06-04T10:02:24.133Z,19.53
2018-06-04T10:04:53.423Z,22.87
2018-06-04T10:07:21.953Z,20.23
2018-06-04T10:09:50.614Z,23.20
2018-06-04T10:12:19.177Z,21.07
2018-06-04T10:14:47.901Z,22.73
2018-06-04T10:17:16.382Z,21.07
2018-06-04T10:19:44.975Z,23.47
2018-06-04T10:22:13.306Z,22.83
2018-06-04T10:24:41.786Z,23.77
2018-06-04T10:27:11.231Z,22.73
2018-06-04T10:29:40.035Z,23.77
2018-06-04T10:32:08.718Z,24.90
2018-06-04T10:34:37.376Z,24.57
2018-06-04T10:37:05.588Z,25.47
2018-06-04T10:39:34.094Z,24.30
2018-06-04T10:42:03.183Z,25.17
2018-06-04T10:44:32.266Z,24.03
2018-06-04T10:47:00.830Z,21.93
2018-06-04T10:49:29.391Z,26.67
2018-06-04T10:51:58.264Z,24.67
2018-06-04T10:54:26.910Z,27.73
2018-06-04T10:56:55.943Z,25.40
2018-06-04T10:59:24.702Z,28.13
2018-06-04T11:01:53.235Z,24.70
2018-06-04T11:04:21.758Z,25.87
2018-06-04T11:06:50.269Z,25.83
2018-06-04T11:09:18.490Z,22.27
2018-06-04T11:11:47.504Z,21.87
2018-06-04T11:14:16.097Z,22.00
2018-06-04T11:16:45.819Z,19.23
2018-06-04T11:19:14.360Z,18.97
2018-06-04T11:21:42.824Z,20.47
2018-06-04T11:24:11.434Z,18.30
2018-06-04T11:26:39.968Z,20.23
2018-06-04T11:29:09.700Z,19.37
2018-06-04T11:31:38.334Z,19.97
2018-06-04T11:34:07.024Z,19.50
2018-06-04T11:36:35.304Z,21.27
2018-06-04T11:39:04.739Z,21.80
2018-06-04T11:41:33.286Z,17.77
2018-06-04T11:44:01.819Z,19.67
2018-06-04T11:46:30.367Z,20.23
2018-06-04T11:48:58.850Z,19.23
2018-06-04T11:51:27.606Z,20.93
2018-06-04T11:53:57.138Z,20.33
2018-06-04T11:56:25.755Z,18.73
2018-06-04T11:58:54.489Z,21.40
2018-06-04T12:01:22.669Z,21.93
2018-06-04T12:03:51.297Z,20.83
2018-06-04T12:06:19.779Z,21.03
2018-06-04T12:08:49.255Z,20.93
2018-06-04T12:11:17.711Z,21.03
2018-06-04T12:13:46.222Z,18.97
2018-06-04T12:16:15.207Z,20.80
2018-06-04T12:18:43.893Z,20.67
2018-06-04T12:21:12.604Z,18.60
2018-06-04T12:23:41.182Z,18.70
2018-06-04T12:26:09.799Z,21.93
2018-06-04T12:28:38.385Z,21.37
2018-06-04T12:31:06.595Z,22.87
2018-06-04T12:33:35.185Z,19.17
2018-06-04T12:36:04.016Z,19.47
2018-06-04T12:38:32.864Z,18.63
2018-06-04T12:41:01.396Z,21.93
2018-06-04T12:43:29.926Z,20.33
2018-06-04T12:45:58.492Z,20.87
2018-06-04T12:48:27.003Z,20.67
2018-06-04T12:50:55.573Z,21.75
2018-06-04T12:53:24.167Z,21.20
2018-06-04T12:55:52.746Z,19.50
2018-06-04T12:58:21.316Z,19.53
2018-06-04T13:00:49.534Z,20.17
2018-06-04T13:03:18.149Z,20.47
2018-06-04T13:05:47.166Z,21.43
2018-06-04T13:08:15.850Z,20.07
2018-06-04T13:10:44.413Z,21.80
2018-06-04T13:13:12.917Z,21.42
2018-06-04T13:15:41.475Z,22.33
2018-06-04T13:18:09.978Z,20.67
2018-06-04T13:20:38.675Z,20.20
2018-06-04T13:23:07.196Z,19.90
2018-06-04T13:25:35.749Z,24.23
2018-06-04T13:28:04.713Z,22.50
2018-06-04T13:30:33.414Z,19.57
2018-06-04T13:33:02.048Z,22.30
2018-06-04T13:35:30.611Z,20.90
2018-06-04T13:37:59.191Z,19.70
2018-06-04T13:40:27.855Z,20.90
2018-06-04T13:42:56.534Z,21.47
2018-06-04T13:45:25.095Z,21.60
2018-06-04T13:47:53.612Z,22.87
2018-06-04T13:50:22.440Z,22.20
2018-06-04T13:52:50.988Z,21.50
2018-06-04T13:55:19.589Z,17.97
2018-06-04T13:57:48.294Z,19.50
2018-06-04T14:00:16.825Z,20.63
2018-06-04T14:02:45.527Z,21.67
2018-06-04T14:05:14.390Z,21.67
2018-06-04T14:07:43.017Z,20.93
2018-06-04T14:10:11.761Z,20.10
2018-06-04T14:12:40.454Z,20.83
2018-06-04T14:15:08.937Z,20.23
2018-06-04T14:17:37.777Z,18.60
2018-06-04T14:20:06.455Z,18.70
2018-06-04T14:22:35.168Z,19.70
2018-06-04T14:25:03.842Z,19.60
2018-06-04T14:27:32.405Z,18.07
2018-06-04T14:30:00.993Z,20.93
2018-06-04T14:32:29.717Z,19.97
2018-06-04T14:34:58.310Z,20.37
2018-06-04T14:37:26.821Z,19.07
2018-06-04T14:39:55.402Z,21.50
2018-06-04T14:42:23.961Z,21.13
2018-06-04T14:44:52.171Z,19.07
2018-06-04T14:47:21.669Z,20.13
2018-06-04T14:49:50.269Z,20.80
2018-06-04T14:52:18.768Z,19.57
2018-06-04T14:54:47.512Z,19.37
2018-06-04T14:57:16.304Z,19.93
2018-06-04T14:59:44.900Z,19.80
2018-06-04T15:02:13.747Z,20.77
2018-06-04T15:04:42.260Z,20.27
2018-06-04T15:07:10.855Z,20.60
2018-06-04T15:09:40.130Z,18.37
2018-06-04T15:12:08.688Z,20.17
2018-06-04T15:14:37.526Z,18.77
2018-06-04T15:17:06.288Z,19.87
2018-06-04T15:19:34.978Z,18.30
2018-06-04T15:22:03.568Z,20.13
2018-06-04T15:24:32.202Z,18.77
2018-06-04T15:27:00.947Z,18.73
2018-06-04T15:29:29.525Z,19.20
2018-06-04T15:31:58.397Z,17.83
2018-06-04T15:34:26.939Z,18.20
2018-06-04T15:36:55.169Z,19.53
2018-06-04T15:39:23.844Z,19.10
2018-06-04T15:41:52.508Z,17.77
2018-06-04T15:44:21.088Z,17.77
2018-06-04T15:46:49.789Z,16.20
2018-06-04T15:49:18.571Z,15.93
2018-06-04T15:51:47.357Z,14.97
2018-06-04T15:54:16.130Z,14.50
2018-06-04T15:56:45.016Z,15.13
2018-06-04T15:59:13.764Z,17.93
2018-06-04T16:01:42.252Z,15.67
2018-06-04T16:04:11.187Z,16.90
2018-06-04T16:06:39.954Z,14.50
2018-06-04T16:09:08.603Z,17.47
2018-06-04T16:11:37.105Z,17.37
2018-06-04T16:14:05.857Z,16.47
2018-06-04T16:16:34.678Z,17.10
2018-06-04T16:19:03.229Z,17.00
2018-06-04T16:21:32.159Z,18.70
2018-06-04T16:24:00.780Z,16.97
2018-06-04T16:26:31.859Z,18.90
2018-06-04T16:29:00.390Z,18.00
2018-06-04T16:31:28.976Z,17.87
2018-06-04T16:33:57.568Z,16.90
2018-06-04T16:36:26.441Z,17.40
2018-06-04T16:38:55.026Z,17.70
2018-06-04T16:41:23.836Z,17.67
2018-06-04T16:43:52.567Z,17.80
2018-06-04T16:46:21.602Z,18.00
2018-06-04T16:48:50.172Z,17.97
2018-06-04T16:51:18.822Z,18.67
2018-06-04T16:53:47.637Z,17.70
2018-06-04T16:56:16.409Z,16.80
2018-06-04T16:58:45.295Z,15.97
2018-06-04T17:01:14.105Z,13.37
2018-06-04T17:03:43.068Z,16.73
2018-06-04T17:06:11.707Z,15.40
2018-06-04T17:08:40.547Z,16.20
2018-06-04T17:11:09.672Z,15.67
2018-06-04T17:13:38.664Z,16.03
2018-06-04T17:16:07.224Z,15.57
2018-06-04T17:18:36.334Z,16.33
2018-06-04T17:21:05.099Z,13.53
2018-06-04T17:23:33.694Z,15.70
2018-06-04T17:26:02.334Z,14.77
2018-06-04T17:28:30.722Z,11.83
2018-06-04T17:31:00.973Z,13.93
2018-06-04T17:33:29.580Z,16.00
2018-06-04T17:35:58.243Z,16.37
2018-06-04T17:38:26.901Z,16.07
2018-06-04T17:40:55.453Z,16.83
2018-06-04T17:43:24.051Z,14.33
2018-06-04T17:45:52.581Z,16.20
2018-06-04T17:48:21.189Z,15.90
2018-06-04T17:50:49.823Z,14.00
2018-06-04T17:53:18.397Z,14.27
2018-06-04T17:55:46.987Z,14.57
2018-06-04T17:58:15.509Z,13.80
2018-06-04T18:00:44.052Z,13.80
2018-06-04T18:03:12.683Z,13.10
2018-06-04T18:05:41.849Z,14.00
2018-06-04T18:08:11.989Z,14.30
2018-06-04T18:10:41.533Z,15.20
2018-06-04T18:13:10.195Z,14.70
2018-06-04T18:15:38.986Z,13.57
2018-06-04T18:18:08.122Z,11.97
2018-06-04T18:20:36.835Z,13.60
2018-06-04T18:23:05.652Z,14.20
2018-06-04T18:25:34.377Z,13.00
2018-06-04T18:28:03.008Z,15.30
2018-06-04T18:30:31.573Z,14.40
2018-06-04T18:33:00.303Z,16.33
2018-06-04T18:35:29.003Z,14.00
2018-06-04T18:37:57.591Z,16.63
2018-06-04T18:40:26.337Z,13.07
2018-06-04T18:42:54.856Z,11.97
2018-06-04T18:45:23.967Z,12.97
2018-06-04T18:47:52.605Z,12.50
2018-06-04T18:50:20.821Z,12.60
2018-06-04T18:52:49.572Z,12.00
2018-06-04T18:55:18.397Z,12.63
2018-06-04T18:57:47.104Z,12.13
2018-06-04T19:00:15.710Z,12.57
2018-06-04T19:02:44.467Z,12.50
2018-06-04T19:05:13.330Z,12.43
2018-06-04T19:07:41.803Z,12.40
2018-06-04T19:10:10.932Z,12.83
2018-06-04T19:12:39.599Z,13.50
2018-06-04T19:15:08.205Z,13.83
2018-06-04T19:17:37.396Z,12.23
2018-06-04T19:20:06.825Z,12.80
2018-06-04T19:22:36.253Z,11.87
2018-06-04T19:25:05.123Z,12.40
2018-06-04T19:27:33.792Z,12.60
2018-06-04T19:30:03.033Z,11.83
2018-06-04T19:32:31.519Z,10.27
2018-06-04T19:35:00.377Z,11.50
2018-06-04T19:37:28.627Z,13.27
2018-06-04T19:39:57.750Z,12.17
2018-06-04T19:42:26.841Z,13.53
2018-06-04T19:44:56.401Z,13.20
2018-06-04T19:47:24.977Z,14.67
2018-06-04T19:49:53.532Z,14.00
2018-06-04T19:52:22.127Z,13.73
2018-06-04T19:54:51.306Z,15.37
2018-06-04T19:57:19.825Z,13.07
2018-06-04T19:59:48.385Z,14.20
2018-06-04T20:02:16.943Z,13.63
2018-06-04T20:04:45.802Z,13.87
2018-06-04T20:07:14.516Z,14.27
2018-06-04T20:09:43.413Z,14.13
2018-06-04T20:12:12.105Z,13.13
2018-06-04T20:14:40.626Z,13.30
2018-06-04T20:17:09.275Z,13.43
2018-06-04T20:19:38.845Z,13.77
2018-06-04T20:22:08.035Z,11.57
2018-06-04T20:24:36.594Z,15.27
2018-06-04T20:27:05.694Z,17.37
2018-06-04T20:29:34.310Z,16.17
2018-06-04T20:32:02.888Z,16.43
2018-06-04T20:34:31.370Z,16.67
2018-06-04T20:36:59.934Z,16.73
2018-06-04T20:39:28.132Z,19.43
2018-06-04T20:41:56.667Z,19.00
2018-06-04T20:44:25.266Z,19.53
2018-06-04T20:46:53.791Z,19.83
2018-06-04T20:49:22.560Z,16.97
2018-06-04T20:51:51.231Z,21.33
2018-06-04T20:54:19.907Z,19.70
2018-06-04T20:56:48.534Z,21.97
2018-06-04T20:59:17.243Z,20.77
2018-06-04T21:01:45.900Z,20.50
2018-06-04T21:04:14.914Z,19.37
2018-06-04T21:06:43.442Z,19.70
2018-06-04T21:09:12.310Z,18.40
2018-06-04T21:11:40.938Z,20.63
2018-06-04T21:14:09.785Z,19.73
2018-06-04T21:16:38.328Z,21.67
2018-06-04T21:19:06.914Z,22.73
2018-06-04T21:21:35.582Z,22.03
2018-06-04T21:24:04.204Z,22.67
2018-06-04T21:26:32.715Z,24.20
2018-06-04T21:29:01.343Z,20.77
2018-06-04T21:31:30.116Z,25.07
2018-06-04T21:33:58.865Z,27.90
2018-06-04T21:36:27.495Z,25.37
2018-06-04T21:38:56.251Z,25.40
2018-06-04T21:41:24.810Z,27.13
2018-06-04T21:43:53.323Z,26.27
2018-06-04T21:46:21.912Z,26.93
2018-06-04T21:48:50.566Z,25.17
2018-06-04T21:51:19.299Z,27.30
2018-06-04T21:53:47.947Z,28.70
2018-06-04T21:56:16.995Z,26.20
2018-06-04T21:58:45.480Z,24.67
2018-06-04T22:01:14.319Z,27.87
2018-06-04T22:03:42.867Z,27.60
2018-06-04T22:06:11.505Z,28.90
2018-06-04T22:08:40.203Z,26.50
2018-06-04T22:11:08.820Z,28.40
2018-06-04T22:13:37.396Z,27.70
2018-06-04T22:16:06.291Z,28.37
2018-06-04T22:18:35.182Z,27.73
2018-06-04T22:21:04.204Z,26.17
2018-06-04T22:23:33.001Z,30.67
2018-06-04T22:26:01.528Z,28.83
2018-06-04T22:28:30.093Z,28.97
2018-06-04T22:30:58.894Z,30.00
2018-06-04T22:33:27.524Z,30.53
2018-06-04T22:35:56.219Z,29.73
2018-06-04T22:38:24.746Z,33.47
2018-06-04T22:40:53.650Z,30.17
2018-06-04T22:43:22.165Z,30.60
2018-06-04T22:45:50.880Z,30.87
2018-06-04T22:48:19.740Z,31.97
2018-06-04T22:50:48.276Z,32.73
2018-06-04T22:53:16.736Z,33.90
2018-06-04T22:55:45.284Z,32.63
2018-06-04T22:58:13.797Z,33.03
2018-06-04T23:00:42.331Z,31.10
2018-06-04T23:03:11.122Z,29.63
2018-06-04T23:05:39.718Z,34.07
2018-06-04T23:08:08.427Z,32.40
2018-06-04T23:10:36.674Z,32.83
2018-06-04T23:13:05.329Z,32.27
2018-06-04T23:15:34.346Z,32.03
2018-06-04T23:18:02.961Z,33.90
2018-06-04T23:20:31.499Z,32.90
2018-06-04T23:23:00.036Z,34.13
2018-06-04T23:25:28.952Z,34.70
2018-06-04T23:27:57.484Z,36.00
2018-06-04T23:30:26.324Z,32.47
2018-06-04T23:32:54.815Z,33.63
2018-06-04T23:35:23.398Z,32.67
2018-06-04T23:37:51.988Z,32.90
2018-06-04T23:40:20.798Z,31.27
2018-06-04T23:42:49.520Z,34.67
2018-06-04T23:45:18.480Z,32.30
2018-06-04T23:47:47.113Z,32.97
2018-06-04T23:50:15.813Z,32.73
2018-06-04T23:52:45.153Z,30.77
2018-06-04T23:55:14.083Z,32.73
2018-06-04T23:57:42.567Z,32.60
